Time;durP1;ratioP1;P1;durP2;ratioP2;P2;SDS_P1;SDS_P2;PMS_P1;PMS_P2;Temp;Humidity;BMP_temperature;BMP_pressure;BME280_temperature;BME280_humidity;BME280_pressure;Samples;Min_cycle;Max_cycle;Signal;HPM_P1;HPM_P2
2022/10/05 00:00:59;;;;;;;25.70;16.47;;;;;;;8.49;90.46;101164.90;1753801;81;21007;-80
2022/10/05 00:03:39;;;;;;;27.07;17.07;;;;;;;8.51;90.51;101162.69;1722642;83;21436;-77
2022/10/05 00:06:11;;;;;;;31.13;18.80;;;;;;;8.51;90.34;101157.05;1754135;81;21448;-80
2022/10/05 00:08:38;;;;;;;24.77;17.77;;;;;;;8.51;90.50;101149.63;1754529;81;21103;-77
2022/10/05 00:11:12;;;;;;;32.00;19.73;;;;;;;8.49;90.44;101144.00;1753986;81;21465;-79
2022/10/05 00:13:40;;;;;;;28.23;18.57;;;;;;;8.49;90.43;101143.14;1754509;81;21417;-80
2022/10/05 00:16:18;;;;;;;28.33;18.67;;;;;;;8.47;90.31;101142.30;1754100;81;20968;-79
2022/10/05 00:18:50;;;;;;;26.47;18.23;;;;;;;8.45;90.22;101142.75;1724434;83;20994;-80
2022/10/05 00:21:26;;;;;;;26.53;18.83;;;;;;;8.41;90.19;101151.09;1753746;81;21181;-79
2022/10/05 00:23:56;;;;;;;27.97;17.30;;;;;;;8.37;90.21;101145.90;1724338;83;22165;-79
2022/10/05 00:26:28;;;;;;;27.87;18.43;;;;;;;8.33;89.96;101143.79;1754166;81;21019;-79
2022/10/05 00:28:55;;;;;;;28.93;17.47;;;;;;;8.27;90.07;101141.28;1725816;82;21048;-79
2022/10/05 00:31:28;;;;;;;29.77;18.30;;;;;;;8.26;90.12;101140.88;1757174;81;21015;-80
2022/10/05 00:33:57;;;;;;;24.77;17.23;;;;;;;8.21;90.26;101131.80;1727296;83;21103;-79
2022/10/05 00:36:25;;;;;;;28.03;16.60;;;;;;;8.21;90.46;101124.41;1757108;81;20996;-76
2022/10/05 00:38:53;;;;;;;23.33;16.57;;;;;;;8.19;90.30;101126.17;1727139;83;20961;-79
2022/10/05 00:41:59;;;;;;;25.77;16.43;;;;;;;8.15;90.28;101123.20;1757012;81;21415;-79
2022/10/05 00:44:44;;;;;;;23.57;16.10;;;;;;;8.12;90.33;101118.00;1710430;83;21076;-75
2022/10/05 00:47:50;;;;;;;22.67;16.07;;;;;;;8.11;90.71;101124.98;1756830;81;21165;-77
2022/10/05 00:50:47;;;;;;;26.10;16.20;;;;;;;8.12;90.98;101125.83;1741059;81;21031;-79
2022/10/05 00:53:22;;;;;;;24.23;15.40;;;;;;;8.16;90.82;101119.70;1726439;83;21019;-80
2022/10/05 00:56:13;;;;;;;24.97;16.07;;;;;;;8.12;90.65;101122.80;1727181;83;20979;-78
2022/10/05 00:59:25;;;;;;;20.70;14.70;;;;;;;8.12;90.80;101123.22;1725704;83;21007;-79
2022/10/05 01:02:33;;;;;;;23.80;14.93;;;;;;;8.10;90.73;101114.58;1738882;81;21326;-78
2022/10/05 01:05:18;;;;;;;19.63;13.10;;;;;;;8.10;90.94;101123.72;1697357;84;21056;-76
2022/10/05 01:08:25;;;;;;;22.73;14.37;;;;;;;8.09;90.88;101120.66;1737128;81;21020;-75
2022/10/05 01:11:28;;;;;;;19.20;13.83;;;;;;;8.10;90.90;101119.34;1756018;81;21066;-79
2022/10/05 01:14:23;;;;;;;19.10;13.20;;;;;;;8.09;90.89;101115.44;1727103;83;21059;-77
2022/10/05 01:16:59;;;;;;;20.60;12.80;;;;;;;8.07;90.86;101117.23;1757277;81;21082;-78
2022/10/05 01:20:07;;;;;;;18.47;13.30;;;;;;;8.05;90.97;101119.86;1748744;81;20991;-76
2022/10/05 01:22:59;;;;;;;19.62;12.95;;;;;;;8.06;91.05;101115.05;1727214;83;21690;-79
2022/10/05 01:26:05;;;;;;;19.07;12.40;;;;;;;8.05;90.94;101110.27;1736192;81;21522;-78
2022/10/05 01:28:46;;;;;;;21.40;13.77;;;;;;;8.03;90.87;101108.11;1726945;83;21530;-78
2022/10/05 01:31:24;;;;;;;19.50;12.87;;;;;;;8.05;90.95;101108.11;1756914;81;21103;-74
2022/10/05 01:34:26;;;;;;;19.37;12.37;;;;;;;8.03;90.88;101109.42;1726864;83;21053;-78
2022/10/05 01:37:04;;;;;;;16.47;12.13;;;;;;;7.99;90.74;101106.45;1747871;81;21476;-78
2022/10/05 01:39:59;;;;;;;16.90;11.73;;;;;;;7.96;90.73;101105.20;1718275;83;21518;-78
2022/10/05 01:42:55;;;;;;;18.60;11.90;;;;;;;7.96;90.75;101108.26;1748559;81;21275;-78
2022/10/05 01:45:45;;;;;;;17.53;11.37;;;;;;;7.94;90.79;101108.71;1757159;81;21219;-78
2022/10/05 01:48:30;;;;;;;18.23;11.18;;;;;;;7.94;91.02;101106.10;1727051;83;21017;-78
2022/10/05 01:51:27;;;;;;;20.07;12.20;;;;;;;7.95;90.96;101109.12;1757199;81;21024;-78
2022/10/05 01:54:33;;;;;;;16.97;11.87;;;;;;;7.93;91.03;101110.91;1706800;83;21088;-77
2022/10/05 01:57:18;;;;;;;21.10;11.93;;;;;;;7.93;90.96;101110.91;1757236;81;21556;-76
2022/10/05 02:00:02;;;;;;;18.73;12.37;;;;;;;7.92;91.03;101113.94;1756445;81;21210;-79
2022/10/05 02:02:43;;;;;;;21.30;12.63;;;;;;;7.93;91.16;101109.61;1755308;81;20998;-78
2022/10/05 02:05:21;;;;;;;20.10;12.27;;;;;;;7.95;91.30;101107.81;1726888;83;21060;-78
2022/10/05 02:07:55;;;;;;;19.20;12.47;;;;;;;7.96;91.30;101097.81;1757184;81;21324;-78
2022/10/05 02:10:36;;;;;;;18.87;12.27;;;;;;;7.97;91.27;101093.86;1757118;81;21003;-77
2022/10/05 02:13:11;;;;;;;20.63;12.60;;;;;;;7.98;91.19;101098.22;1757575;81;21150;-78
2022/10/05 02:15:53;;;;;;;19.17;12.50;;;;;;;7.99;91.25;101101.68;1756394;81;21027;-78
2022/10/05 02:18:25;;;;;;;19.67;11.93;;;;;;;7.99;91.29;101099.92;1756480;81;21493;-78
2022/10/05 02:20:54;;;;;;;20.37;12.73;;;;;;;7.99;91.18;101097.31;1756844;81;21100;-79
2022/10/05 02:23:28;;;;;;;18.40;11.77;;;;;;;7.98;91.00;101105.16;1727097;83;21013;-78
2022/10/05 02:25:59;;;;;;;23.87;12.30;;;;;;;7.97;91.05;101111.27;1732189;81;21038;-79
2022/10/05 02:28:44;;;;;;;17.23;12.13;;;;;;;7.97;91.17;101100.38;1726584;83;21061;-78
2022/10/05 02:31:16;;;;;;;18.17;11.87;;;;;;;7.99;91.34;101099.92;1754179;81;21031;-79
2022/10/05 02:33:43;;;;;;;19.60;12.57;;;;;;;8.01;91.30;101086.86;1753146;81;20968;-79
2022/10/05 02:36:25;;;;;;;18.50;12.50;;;;;;;8.02;91.40;101079.44;1753900;81;21196;-78
2022/10/05 02:39:09;;;;;;;16.87;11.80;;;;;;;8.02;91.25;101076.83;1753401;81;21786;-77
2022/10/05 02:41:57;;;;;;;17.77;11.20;;;;;;;8.02;91.35;101071.61;1744842;81;21031;-78
2022/10/05 02:44:45;;;;;;;17.13;11.93;;;;;;;8.03;91.40;101081.16;1751758;81;21007;-78
2022/10/05 02:47:34;;;;;;;17.63;12.10;;;;;;;8.05;91.47;101061.11;1746323;81;20988;-77
2022/10/05 02:50:25;;;;;;;18.50;11.80;;;;;;;8.04;91.28;101056.79;1754207;81;20989;-77
2022/10/05 02:53:14;;;;;;;16.07;11.70;;;;;;;8.04;91.36;101060.26;1754150;81;21107;-78
2022/10/05 02:55:53;;;;;;;;;;;;;;;8.07;91.55;101065.88;1727076;83;20994;-77
2022/10/05 02:58:28;;;;;;;18.23;11.87;;;;;;;8.07;91.61;101061.95;1725976;82;20176;-77
2022/10/05 03:01:11;;;;;;;16.50;12.40;;;;;;;8.07;91.32;101070.23;1740214;81;21019;-78
2022/10/05 03:04:01;;;;;;;17.17;11.40;;;;;;;8.03;91.31;101069.41;1724413;83;21002;-78
2022/10/05 03:06:36;;;;;;;20.43;12.57;;;;;;;8.02;91.29;101064.63;1754155;81;20999;-75
2022/10/05 03:09:07;;;;;;;18.80;12.37;;;;;;;8.00;91.31;101070.76;1697437;83;21045;-76
2022/10/05 03:11:56;;;;;;;19.97;11.73;;;;;;;8.02;91.55;101069.85;1727131;81;20956;-77
2022/10/05 03:15:02;;;;;;;18.13;10.87;;;;;;;8.00;91.23;101057.26;1724801;83;21029;-78
2022/10/05 03:17:47;;;;;;;15.10;11.37;;;;;;;7.96;91.21;101066.48;1753807;81;21043;-78
2022/10/05 03:20:35;;;;;;;18.47;11.17;;;;;;;7.92;91.15;101059.12;1723836;83;21113;-77
2022/10/05 03:23:06;;;;;;;15.97;11.43;;;;;;;7.89;91.17;101070.06;1754328;81;20999;-78
2022/10/05 03:25:39;;;;;;;16.63;12.13;;;;;;;7.87;91.38;101071.83;1754198;81;21550;-79
2022/10/05 03:28:24;;;;;;;19.90;11.27;;;;;;;7.86;91.44;101067.50;1743729;81;20995;-78
2022/10/05 03:31:14;;;;;;;16.37;11.50;;;;;;;7.83;91.43;101064.05;1716834;81;21027;-77
2022/10/05 03:33:49;;;;;;;22.45;11.20;;;;;;;7.83;91.53;101060.13;1739752;81;21851;-79
2022/10/05 03:36:36;;;;;;;15.27;10.97;;;;;;;7.81;91.56;101057.13;1750478;81;21502;-78
2022/10/05 03:39:15;;;;;;;17.17;11.70;;;;;;;7.78;91.56;101056.73;1637126;87;21053;-79
2022/10/05 03:41:53;;;;;;;20.40;11.50;;;;;;;7.78;91.66;101073.69;1753330;81;20999;-76
2022/10/05 03:44:56;;;;;;;18.53;11.80;;;;;;;7.81;91.81;101081.92;1754289;81;21019;-79
2022/10/05 03:47:46;;;;;;;17.27;11.57;;;;;;;7.82;91.98;101070.61;1753713;81;21068;-78
2022/10/05 03:50:31;;;;;;;15.97;10.53;;;;;;;7.81;91.83;101062.34;1754316;81;21039;-75
2022/10/05 03:53:07;;;;;;;17.77;10.90;;;;;;;7.80;91.74;101050.19;1720066;81;21063;-76
2022/10/05 03:55:54;;;;;;;16.03;10.47;;;;;;;7.81;91.91;101051.48;1754158;81;21567;-75
2022/10/05 03:58:45;;;;;;;19.10;11.03;;;;;;;7.81;91.84;101046.69;1721693;83;21584;-77
2022/10/05 04:01:17;;;;;;;16.07;10.53;;;;;;;7.83;91.93;101045.78;1753857;81;21111;-78
2022/10/05 04:03:52;;;;;;;16.00;10.63;;;;;;;7.81;91.88;101042.35;1753994;81;21086;-78
2022/10/05 04:06:28;;;;;;;14.17;10.60;;;;;;;7.83;92.09;101045.78;1725059;81;20996;-75
2022/10/05 04:09:27;;;;;;;17.33;10.37;;;;;;;7.86;92.14;101049.23;1754388;81;21458;-77
2022/10/05 04:12:05;;;;;;;14.47;10.27;;;;;;;7.87;92.04;101054.86;1754196;81;21042;-79
2022/10/05 04:14:43;;;;;;;16.80;10.50;;;;;;;7.89;92.23;101052.65;1724074;83;21213;-78
2022/10/05 04:17:17;;;;;;;17.47;11.10;;;;;;;7.89;92.08;101056.56;1754207;81;21484;-77
2022/10/05 04:20:05;;;;;;;17.30;11.93;;;;;;;7.87;91.96;101057.47;1754369;81;21007;-75
2022/10/05 04:22:44;;;;;;;14.37;10.40;;;;;;;7.91;92.22;101064.39;1704174;83;21040;-78
2022/10/05 04:25:37;;;;;;;17.17;10.87;;;;;;;7.91;92.10;101065.24;1754144;81;21028;-77
2022/10/05 04:28:21;;;;;;;14.37;10.40;;;;;;;7.86;91.81;101064.90;1723931;83;21096;-78
2022/10/05 04:30:51;;;;;;;16.07;10.27;;;;;;;7.87;92.03;101058.78;1756145;81;20992;-74
2022/10/05 04:33:19;;;;;;;12.87;9.47;;;;;;;7.80;91.47;101052.80;1702025;83;21507;-74
2022/10/05 04:36:04;;;;;;;14.83;9.33;;;;;;;7.75;91.38;101063.30;1739773;82;21012;-79
2022/10/05 04:39:03;;;;;;;18.50;12.27;;;;;;;7.72;91.52;101068.56;1757180;81;21011;-79
2022/10/05 04:42:06;;;;;;;15.00;11.17;;;;;;;7.68;91.51;101076.48;1726836;83;21237;-79
2022/10/05 04:45:03;;;;;;;19.97;12.53;;;;;;;7.69;91.86;101069.06;1757396;81;21057;-75
2022/10/05 04:47:46;;;;;;;17.17;11.33;;;;;;;7.71;92.17;101069.46;1756934;81;20999;-79
2022/10/05 04:50:21;;;;;;;15.87;11.67;;;;;;;7.73;92.15;101064.20;1754111;81;21034;-77
2022/10/05 04:53:25;;;;;;;15.40;10.60;;;;;;;7.67;91.45;101064.30;1756970;81;20999;-78
2022/10/05 04:56:04;;;;;;;15.07;10.10;;;;;;;7.57;91.12;101057.92;1754898;81;21114;-74
2022/10/05 04:58:54;;;;;;;16.07;11.50;;;;;;;7.50;90.98;101065.84;1749763;81;21019;-79
2022/10/05 05:01:53;;;;;;;16.30;11.18;;;;;;;7.43;91.14;101057.67;1754563;81;26464;-78
2022/10/05 05:04:49;;;;;;;14.30;11.00;;;;;;;7.44;91.64;101055.50;1756471;81;21468;-76
2022/10/05 05:07:34;;;;;;;15.80;11.63;;;;;;;7.43;91.67;101055.95;1737151;81;21010;-78
2022/10/05 05:10:06;;;;;;;17.30;10.77;;;;;;;7.43;91.98;101061.58;1740312;81;21401;-80
2022/10/05 05:12:41;;;;;;;19.57;12.50;;;;;;;7.38;91.59;101057.30;1725562;83;21005;-77
2022/10/05 05:15:49;;;;;;;18.03;11.97;;;;;;;7.38;92.04;101061.22;1755777;81;21039;-75
2022/10/05 05:18:35;;;;;;;15.27;11.30;;;;;;;7.35;91.74;101067.78;1724372;81;20987;-79
2022/10/05 05:21:25;;;;;;;18.50;11.33;;;;;;;7.31;91.56;101073.90;1721122;81;21022;-80
2022/10/05 05:24:29;;;;;;;19.20;11.78;;;;;;;7.27;91.46;101074.84;1697220;83;21926;-79
2022/10/05 05:27:11;;;;;;;16.60;11.70;;;;;;;7.25;91.49;101083.56;1721434;81;20999;-77
2022/10/05 05:30:09;;;;;;;17.43;11.37;;;;;;;7.26;91.83;101078.75;1742257;81;21497;-77
2022/10/05 05:33:15;;;;;;;15.37;10.93;;;;;;;7.27;91.89;101080.05;1730732;82;21051;-79
2022/10/05 05:36:09;;;;;;;15.13;10.90;;;;;;;7.32;92.10;101082.61;1724770;82;21572;-74
2022/10/05 05:39:09;;;;;;;15.77;11.50;;;;;;;7.37;92.69;101081.67;1722559;81;21128;-78
2022/10/05 05:42:00;;;;;;;21.40;12.17;;;;;;;7.49;93.14;101081.09;1720191;81;21029;-77
2022/10/05 05:44:41;;;;;;;18.37;11.90;;;;;;;7.60;93.15;101077.89;1721799;82;21059;-75
2022/10/05 05:47:36;;;;;;;18.77;11.77;;;;;;;7.69;93.44;101072.53;1704515;82;21104;-77
2022/10/05 05:50:39;;;;;;;17.17;11.97;;;;;;;7.81;93.51;101072.37;1712368;82;21208;-77
2022/10/05 05:53:26;;;;;;;15.03;11.23;;;;;;;7.93;93.65;101071.76;1704620;82;21261;-77
2022/10/05 05:55:59;;;;;;;18.37;11.47;;;;;;;8.05;93.85;101063.27;1719440;82;21064;-80
2022/10/05 05:58:50;;;;;;;19.93;13.17;;;;;;;8.19;93.87;101063.05;1704253;82;21000;-77
2022/10/05 06:01:24;;;;;;;;;;;;;;;8.30;93.79;101069.41;1717511;82;21039;-80
2022/10/05 06:04:06;;;;;;;19.70;12.63;;;;;;;8.42;93.86;101065.30;1723547;81;20514;-77
2022/10/05 06:06:38;;;;;;;17.67;11.67;;;;;;;8.53;93.98;101074.70;1732982;81;22024;-80
2022/10/05 06:09:14;;;;;;;24.30;16.00;;;;;;;8.65;93.91;101077.97;1725495;81;20999;-77
2022/10/05 06:12:11;;;;;;;19.67;12.37;;;;;;;8.78;94.04;101073.36;1731442;81;21046;-76
2022/10/05 06:15:05;;;;;;;18.17;11.70;;;;;;;8.90;93.79;101080.13;1729968;81;21512;-76
2022/10/05 06:17:46;;;;;;;17.07;10.43;;;;;;;8.98;93.41;101082.15;1732019;82;21038;-79
2022/10/05 06:20:24;;;;;;;15.47;9.93;;;;;;;9.04;93.12;101082.02;1750635;81;21091;-78
2022/10/05 06:22:53;;;;;;;15.37;10.47;;;;;;;9.09;92.87;101076.67;1755650;81;21049;-79
2022/10/05 06:25:45;;;;;;;22.43;14.53;;;;;;;9.15;92.74;101083.12;1699382;81;20920;-74
2022/10/05 06:28:17;;;;;;;13.77;9.37;;;;;;;9.21;92.58;101084.75;1696700;83;21058;-76
2022/10/05 06:31:14;;;;;;;14.43;10.80;;;;;;;9.27;92.63;101080.69;1727050;81;21082;-76
2022/10/05 06:33:51;;;;;;;16.13;10.50;;;;;;;9.33;92.55;101072.70;1729717;82;21957;-79
2022/10/05 06:36:47;;;;;;;18.57;12.33;;;;;;;9.40;92.74;101073.00;1717963;82;21098;-71
2022/10/05 06:39:34;;;;;;;16.10;11.17;;;;;;;9.50;92.67;101072.34;1717296;82;21334;-76
2022/10/05 06:42:21;;;;;;;15.53;10.83;;;;;;;9.57;92.48;101064.33;1725079;82;21043;-78
2022/10/05 06:45:30;;;;;;;15.73;9.93;;;;;;;9.60;92.05;101073.87;1702131;82;21430;-77
2022/10/05 06:48:20;;;;;;;16.23;10.07;;;;;;;9.65;92.09;101078.56;1730679;82;21190;-76
2022/10/05 06:51:15;;;;;;;15.00;10.10;;;;;;;9.69;91.75;101076.27;1728632;82;21004;-79
2022/10/05 06:54:00;;;;;;;15.43;9.70;;;;;;;9.70;91.57;101081.94;1724864;81;21502;-75
2022/10/05 06:56:41;;;;;;;15.90;9.43;;;;;;;9.71;91.49;101088.89;1717597;80;21028;-75
2022/10/05 06:59:26;;;;;;;12.50;8.60;;;;;;;9.74;91.46;101086.20;1700755;82;21541;-77
2022/10/05 07:02:07;;;;;;;11.80;8.57;;;;;;;9.76;91.53;101083.11;1716707;82;21133;-76
2022/10/05 07:05:10;;;;;;;11.83;8.43;;;;;;;9.79;91.25;101073.02;1724730;82;20943;-76
2022/10/05 07:07:54;;;;;;;12.90;8.60;;;;;;;9.82;91.44;101076.87;1715053;82;21035;-76
2022/10/05 07:10:48;;;;;;;13.80;8.47;;;;;;;9.85;91.37;101083.34;1717575;82;21091;-76
2022/10/05 07:13:47;;;;;;;14.33;8.43;;;;;;;9.88;91.20;101079.34;1727721;82;21527;-76
2022/10/05 07:16:54;;;;;;;23.30;9.87;;;;;;;9.91;91.20;101078.41;1729534;82;21087;-73
2022/10/05 07:19:51;;;;;;;12.40;8.77;;;;;;;9.92;91.06;101069.64;1726507;82;21011;-77
2022/10/05 07:22:39;;;;;;;11.53;8.60;;;;;;;9.93;90.96;101065.69;1708980;81;21045;-75
2022/10/05 07:25:24;;;;;;;15.13;9.47;;;;;;;9.97;91.17;101069.95;1711676;81;21038;-72
2022/10/05 07:28:14;;;;;;;13.93;8.70;;;;;;;10.04;91.29;101083.32;1729297;82;21464;-77
2022/10/05 07:31:05;;;;;;;12.83;8.77;;;;;;;10.10;91.24;101069.67;1726499;82;21103;-79
2022/10/05 07:34:10;;;;;;;14.50;8.23;;;;;;;10.21;91.44;101066.34;1729198;82;21067;-80
2022/10/05 07:39:58;;;;;;;10.63;7.70;;;;;;;10.45;91.37;101072.30;1727531;82;21054;-75
2022/10/05 07:42:56;;;;;;;10.00;7.90;;;;;;;10.55;91.39;101074.22;1728347;81;20987;-78
2022/10/05 07:45:52;;;;;;;15.60;8.38;;;;;;;10.65;91.04;101069.61;1726477;82;21161;-79
2022/10/05 07:48:34;;;;;;;13.98;8.33;;;;;;;10.74;91.04;101076.36;1730876;82;21098;-78
2022/10/05 07:51:15;;;;;;;13.43;7.87;;;;;;;10.83;91.01;101069.09;1705640;81;21088;-73
2022/10/05 07:53:51;;;;;;;14.95;8.28;;;;;;;10.93;90.98;101069.25;1726024;82;21020;-79
2022/10/05 07:56:26;;;;;;;12.18;8.05;;;;;;;11.03;91.01;101074.23;1706983;82;21038;-80
2022/10/05 07:59:06;;;;;;;9.75;7.35;;;;;;;11.13;90.86;101079.64;1727136;82;22262;-73
2022/10/05 08:01:38;;;;;;;16.00;9.65;;;;;;;11.22;90.75;101078.05;1726062;81;21438;-76
2022/10/05 08:04:14;;;;;;;16.52;10.80;;;;;;;11.30;90.60;101075.22;1730708;82;21075;-77
2022/10/05 08:06:55;;;;;;;15.58;10.90;;;;;;;11.36;90.37;101079.85;1720336;82;21496;-75
2022/10/05 08:09:31;;;;;;;16.27;9.73;;;;;;;11.45;90.34;101084.42;1712094;81;21014;-76
2022/10/05 08:12:15;;;;;;;11.93;8.68;;;;;;;11.55;90.27;101080.14;1717198;81;21538;-74
2022/10/05 08:15:05;;;;;;;15.93;9.48;;;;;;;11.66;90.16;101079.81;1684751;82;21578;-72
2022/10/05 08:17:45;;;;;;;11.57;8.95;;;;;;;11.75;90.09;101069.47;1729802;82;20995;-73
2022/10/05 08:20:26;;;;;;;14.03;8.60;;;;;;;11.82;89.81;101067.93;1717889;82;21086;-77
2022/10/05 08:23:25;;;;;;;13.40;9.20;;;;;;;11.91;89.86;101062.87;1721415;82;21332;-75
2022/10/05 08:26:06;;;;;;;13.13;8.63;;;;;;;11.98;89.67;101062.23;1714858;82;21301;-77
2022/10/05 08:28:38;;;;;;;11.43;7.92;;;;;;;12.03;89.54;101059.86;1723462;82;21027;-75
2022/10/05 08:31:28;;;;;;;13.35;8.88;;;;;;;12.11;89.37;101062.25;1721771;81;22293;-73
2022/10/05 08:34:36;;;;;;;10.18;7.25;;;;;;;12.17;89.61;101056.78;1731981;81;21126;-73
2022/10/05 08:37:23;;;;;;;11.80;7.75;;;;;;;12.25;89.46;101050.81;1729370;82;21054;-73
2022/10/05 08:40:22;;;;;;;9.03;6.25;;;;;;;12.37;89.20;101060.52;1715863;82;22022;-73
2022/10/05 08:43:06;;;;;;;10.28;5.92;;;;;;;12.47;88.83;101065.84;1734860;81;20999;-73
2022/10/05 08:46:24;;;;;;;9.65;6.00;;;;;;;12.61;88.94;101065.36;1714447;82;21035;-77
2022/10/05 08:49:20;;;;;;;8.80;5.65;;;;;;;12.76;88.63;101064.84;1709401;82;21063;-81
2022/10/05 08:52:27;;;;;;;9.30;5.67;;;;;;;12.97;88.49;101061.02;1722236;81;21739;-75
2022/10/05 08:55:24;;;;;;;8.75;5.80;;;;;;;13.11;88.12;101063.57;1742804;81;21836;-73
2022/10/05 08:58:02;;;;;;;9.13;6.05;;;;;;;13.28;88.04;101064.75;1724583;82;21011;-77
2022/10/05 09:00:53;;;;;;;10.60;6.65;;;;;;;13.46;87.84;101058.77;1740239;82;21006;-75
2022/10/05 09:03:33;;;;;;;10.15;6.30;;;;;;;13.59;87.57;101060.02;1740123;82;21021;-76
2022/10/05 09:06:43;;;;;;;8.15;5.33;;;;;;;13.73;87.43;101059.94;1748811;82;21001;-74
2022/10/05 09:09:47;;;;;;;8.05;5.40;;;;;;;13.84;87.23;101052.46;1749147;82;22066;-77
2022/10/05 09:13:01;;;;;;;8.05;4.60;;;;;;;13.96;86.95;101045.36;1747551;82;21491;-75
2022/10/05 09:16:00;;;;;;;7.90;4.37;;;;;;;14.10;86.83;101042.16;1749006;82;21032;-75
2022/10/05 09:19:02;;;;;;;6.03;4.17;;;;;;;14.22;86.41;101046.09;1748917;82;20993;-74
2022/10/05 09:21:52;;;;;;;6.03;3.92;;;;;;;14.32;85.83;101044.75;1748828;82;21590;-75
2022/10/05 09:24:29;;;;;;;6.47;3.55;;;;;;;14.47;85.71;101041.48;1749187;82;21167;-73
2022/10/05 09:27:15;;;;;;;8.15;3.75;;;;;;;14.63;85.26;101041.72;1748474;81;21053;-75
2022/10/05 09:30:24;;;;;;;11.90;4.15;;;;;;;14.79;85.26;101040.55;1727848;82;21076;-75
2022/10/05 09:33:02;;;;;;;7.05;3.45;;;;;;;14.99;84.74;101042.77;1752135;81;21017;-75
2022/10/05 09:36:04;;;;;;;12.58;3.80;;;;;;;15.11;84.28;101028.56;1752934;81;21029;-75
2022/10/05 09:38:59;;;;;;;7.85;3.58;;;;;;;15.41;83.22;101018.82;1753022;81;21885;-77
2022/10/05 09:42:10;;;;;;;6.58;3.65;;;;;;;15.41;83.22;101018.82;1752888;81;21011;-76
2022/10/05 09:44:55;;;;;;;6.15;3.60;;;;;;;15.57;82.85;101015.84;1752955;81;21064;-75
2022/10/05 09:47:51;;;;;;;6.12;4.28;;;;;;;15.68;82.53;101015.77;1752857;81;21120;-75
2022/10/05 09:50:43;;;;;;;11.90;4.90;;;;;;;15.74;82.48;101006.25;1753005;81;21284;-75
2022/10/05 09:53:41;;;;;;;7.05;4.03;;;;;;;15.81;82.47;101001.06;1716355;81;21084;-76
2022/10/05 09:56:40;;;;;;;5.92;3.60;;;;;;;15.97;81.99;100998.53;1735008;81;21016;-75
2022/10/05 09:59:41;;;;;;;7.37;3.62;;;;;;;16.22;81.65;101006.08;1693747;83;20982;-76
2022/10/05 10:02:31;;;;;;;6.83;3.33;;;;;;;16.51;80.96;101000.59;1716866;83;21521;-75
2022/10/05 10:05:28;;;;;;;7.45;3.62;;;;;;;16.75;80.64;100997.13;1716648;83;21018;-74
2022/10/05 10:08:23;;;;;;;5.50;3.40;;;;;;;16.98;80.28;100996.39;1705383;83;21113;-75
2022/10/05 10:11:19;;;;;;;7.37;3.77;;;;;;;17.16;79.65;100993.59;1716562;83;21132;-72
2022/10/05 10:14:21;;;;;;;7.50;3.15;;;;;;;17.49;79.45;100990.48;1700713;83;20998;-75
2022/10/05 10:17:00;;;;;;;5.22;2.77;;;;;;;17.88;79.12;100992.67;1716269;83;21115;-76
2022/10/05 10:19:47;;;;;;;6.58;2.70;;;;;;;18.23;78.00;100999.86;1716743;83;21085;-76
2022/10/05 10:22:45;;;;;;;5.53;2.98;;;;;;;18.62;78.02;100997.11;1716365;83;21311;-74
2022/10/05 10:25:37;;;;;;;9.68;2.77;;;;;;;19.07;76.93;101000.54;1716216;83;21080;-76
2022/10/05 10:28:44;;;;;;;7.80;3.60;;;;;;;19.43;75.82;100995.16;1705478;83;21692;-75
2022/10/05 10:31:41;;;;;;;6.72;2.83;;;;;;;19.83;75.52;100992.56;1710224;83;21061;-75
2022/10/05 10:34:36;;;;;;;5.83;2.95;;;;;;;20.24;74.74;100979.62;1702614;84;21051;-74
2022/10/05 10:37:39;;;;;;;4.05;2.62;;;;;;;20.67;74.24;100976.66;1694924;83;21135;-75
2022/10/05 10:40:50;;;;;;;3.90;2.60;;;;;;;20.91;72.29;100974.08;1692599;83;21009;-74
2022/10/05 10:43:55;;;;;;;3.98;2.70;;;;;;;21.17;71.42;100974.86;1694107;83;21489;-75
2022/10/05 10:47:06;;;;;;;7.03;2.70;;;;;;;21.34;70.68;100979.84;1698771;83;21024;-75
2022/10/05 10:49:45;;;;;;;5.53;2.85;;;;;;;21.50;69.61;100988.06;1699020;83;21069;-74
2022/10/05 10:52:21;;;;;;;6.95;3.05;;;;;;;21.79;69.26;100982.77;1704125;83;21956;-74
2022/10/05 10:55:11;;;;;;;6.70;2.62;;;;;;;22.09;68.95;100978.75;1710811;82;21069;-74
2022/10/05 10:58:17;;;;;;;5.62;2.40;;;;;;;22.36;68.29;100980.28;1706733;82;21013;-75
2022/10/05 11:01:09;;;;;;;6.95;2.67;;;;;;;22.53;66.70;100981.64;1715326;82;21035;-75
2022/10/05 11:04:15;;;;;;;5.65;2.62;;;;;;;22.53;65.78;100977.17;1709705;82;21517;-75
2022/10/05 11:07:19;;;;;;;4.97;2.80;;;;;;;22.40;65.04;100976.42;1707063;82;21140;-75
2022/10/05 11:10:21;;;;;;;6.53;2.37;;;;;;;22.17;64.30;100968.80;1715787;82;21044;-75
2022/10/05 11:13:06;;;;;;;5.83;2.60;;;;;;;22.21;63.92;100961.81;1706913;82;21489;-75
2022/10/05 11:16:09;;;;;;;5.45;2.58;;;;;;;22.45;63.78;100961.73;1706719;82;21040;-75
2022/10/05 11:19:04;;;;;;;4.80;2.50;;;;;;;22.73;63.61;100962.23;1706714;82;21511;-75
2022/10/05 11:22:09;;;;;;;6.62;2.90;;;;;;;22.73;62.93;100964.06;1706916;82;21272;-75
2022/10/05 11:25:15;;;;;;;4.20;2.50;;;;;;;22.40;62.31;100955.91;1715449;82;21009;-75
2022/10/05 11:28:12;;;;;;;5.45;2.83;;;;;;;22.24;62.39;100956.72;1706720;82;21063;-75
2022/10/05 11:30:55;;;;;;;6.45;2.75;;;;;;;22.19;62.07;100946.38;1726322;82;21477;-75
2022/10/05 11:33:43;;;;;;;5.65;2.90;;;;;;;22.01;61.59;100940.62;1725713;82;21579;-75
2022/10/05 11:36:36;;;;;;;4.40;2.40;;;;;;;21.76;61.66;100931.45;1736579;82;21134;-75
2022/10/05 11:39:44;;;;;;;4.72;2.12;;;;;;;21.98;62.32;100930.67;1736921;82;20866;-75
2022/10/05 11:42:58;;;;;;;6.10;2.17;;;;;;;22.49;62.34;100927.12;1692884;84;21035;-75
2022/10/05 11:45:46;;;;;;;4.30;2.05;;;;;;;23.04;61.98;100928.58;1679957;84;21106;-75
2022/10/05 11:49:02;;;;;;;2.83;1.65;;;;;;;23.60;61.05;100916.84;1697337;84;21084;-75
2022/10/05 11:51:47;;;;;;;3.67;1.80;;;;;;;23.88;60.09;100919.41;1697146;84;21095;-75
2022/10/05 11:54:19;;;;;;;4.28;1.92;;;;;;;23.91;58.40;100921.83;1697460;84;21743;-74
2022/10/05 11:57:09;;;;;;;3.20;1.90;;;;;;;24.13;58.66;100922.67;1695956;84;21020;-75
2022/10/05 12:00:20;;;;;;;3.05;1.80;;;;;;;24.41;58.38;100917.11;1697301;84;21040;-75
2022/10/05 12:03:09;;;;;;;3.90;1.90;;;;;;;24.52;57.19;100917.55;1685751;84;21000;-74
2022/10/05 12:05:50;;;;;;;2.52;1.60;;;;;;;24.74;56.48;100909.81;1688453;83;21920;-74
2022/10/05 12:08:43;;;;;;;4.72;1.67;;;;;;;24.94;56.25;100912.89;1669026;84;21037;-75
2022/10/05 12:11:42;;;;;;;4.53;1.67;;;;;;;24.89;54.84;100909.80;1669163;84;21020;-76
2022/10/05 12:14:24;;;;;;;2.45;1.55;;;;;;;24.91;54.29;100896.61;1668989;84;21513;-75
2022/10/05 12:17:05;;;;;;;3.17;1.65;;;;;;;24.92;54.36;100892.09;1669202;84;21084;-74
2022/10/05 12:19:45;;;;;;;2.20;1.30;;;;;;;25.21;54.45;100889.97;1674555;82;21132;-74
2022/10/05 12:22:26;;;;;;;2.15;1.52;;;;;;;25.45;54.16;100885.05;1707233;82;21055;-73
2022/10/05 12:25:25;;;;;;;3.52;1.77;;;;;;;25.53;53.14;100883.84;1653638;85;21012;-74
2022/10/05 12:27:55;;;;;;;;;;;;;;;25.52;52.46;100885.31;1658696;85;21054;-75
2022/10/05 12:31:10;;;;;;;5.83;1.47;;;;;;;25.34;51.19;100886.03;1650276;87;21275;-75
2022/10/05 12:33:52;;;;;;;3.90;1.62;;;;;;;25.07;51.15;100881.80;1643260;86;21172;-77
2022/10/05 12:36:24;;;;;;;4.47;1.60;;;;;;;24.52;51.26;100888.08;1655790;86;21020;-74
2022/10/05 12:39:27;;;;;;;2.87;1.60;;;;;;;24.28;50.69;100889.22;1655872;86;21027;-74
2022/10/05 12:42:17;;;;;;;5.10;1.62;;;;;;;23.89;50.71;100879.64;1650158;87;21060;-75
2022/10/05 12:45:13;;;;;;;4.95;1.90;;;;;;;23.69;51.06;100875.08;1650434;86;21067;-74
2022/10/05 12:48:06;;;;;;;5.45;2.05;;;;;;;23.53;50.84;100872.88;1648868;86;21980;-74
2022/10/05 12:50:50;;;;;;;7.42;2.10;;;;;;;23.44;51.17;100872.28;1670265;84;21026;-76
2022/10/05 12:53:40;;;;;;;3.12;1.50;;;;;;;23.27;50.98;100872.36;1671150;84;21054;-74
2022/10/05 12:56:13;;;;;;;3.22;1.60;;;;;;;23.11;50.91;100864.74;1670602;84;21014;-76
2022/10/05 12:59:03;;;;;;;5.35;1.82;;;;;;;22.98;50.79;100864.08;1665150;84;21065;-75
2022/10/05 13:01:56;;;;;;;3.08;1.47;;;;;;;23.00;51.26;100857.64;1678814;83;21906;-75